Time;durP1;ratioP1;P1;durP2;ratioP2;P2;SDS_P1;SDS_P2;PMS_P1;PMS_P2;Temp;Humidity;BMP_temperature;BMP_pressure;BME280_temperature;BME280_humidity;BME280_pressure;Samples;Min_cycle;Max_cycle;Signal;HPM_P1;HPM_P2
2022/05/18 00:02:24;;;;;;;9.13;5.43;;;17.10;99.90;;;;;;4965817;28;20064;-73
2022/05/18 00:04:50;;;;;;;10.63;5.40;;;17.00;99.90;;;;;;4964253;28;20035;-72
2022/05/18 00:07:16;;;;;;;10.70;5.90;;;17.00;99.90;;;;;;4950279;28;20050;-72
2022/05/18 00:09:41;;;;;;;8.60;5.60;;;16.90;99.90;;;;;;4964652;28;20038;-73
2022/05/18 00:12:08;;;;;;;11.23;6.20;;;16.90;99.90;;;;;;4966838;28;20046;-72
2022/05/18 00:14:34;;;;;;;10.85;5.65;;;16.90;99.90;;;;;;4962262;28;20050;-72
2022/05/18 00:17:03;;;;;;;10.48;6.38;;;16.90;99.90;;;;;;4962142;28;20046;-73
2022/05/18 00:19:30;;;;;;;9.48;5.55;;;16.90;99.90;;;;;;4980183;28;20043;-72
2022/05/18 00:21:56;;;;;;;10.07;6.00;;;16.80;99.90;;;;;;4964148;28;20046;-72
2022/05/18 00:24:22;;;;;;;12.15;5.78;;;16.80;99.90;;;;;;4966492;28;20046;-73
2022/05/18 00:26:47;;;;;;;8.90;5.80;;;16.80;99.90;;;;;;4965102;28;20050;-72
2022/05/18 00:29:13;;;;;;;7.72;5.43;;;16.80;99.90;;;;;;4964952;28;20042;-72
2022/05/18 00:31:41;;;;;;;12.52;6.40;;;16.70;99.90;;;;;;4964513;28;20090;-73
2022/05/18 00:34:07;;;;;;;11.27;6.50;;;16.80;99.90;;;;;;4965476;28;20042;-72
2022/05/18 00:36:33;;;;;;;11.60;6.43;;;16.70;99.90;;;;;;4964553;28;20131;-73
2022/05/18 00:38:59;;;;;;;9.27;6.32;;;16.70;99.90;;;;;;4965654;28;20047;-72
2022/05/18 00:41:25;;;;;;;9.02;5.85;;;16.70;99.90;;;;;;4964817;28;20064;-72
2022/05/18 00:43:51;;;;;;;12.38;6.68;;;16.60;99.90;;;;;;4964384;28;20042;-72
2022/05/18 00:46:17;;;;;;;11.18;5.82;;;16.60;99.90;;;;;;4964992;28;20039;-73
2022/05/18 00:48:43;;;;;;;8.10;5.65;;;16.60;99.90;;;;;;4965325;28;20038;-73
2022/05/18 00:51:22;;;;;;;10.85;6.65;;;16.60;99.90;;;;;;4964028;28;20049;-72
2022/05/18 00:53:50;;;;;;;9.70;6.80;;;16.60;99.90;;;;;;4966194;28;20039;-72
2022/05/18 00:56:21;;;;;;;13.38;6.30;;;16.60;99.90;;;;;;4982184;28;20035;-73
2022/05/18 00:58:49;;;;;;;7.63;6.40;;;16.60;99.90;;;;;;4961625;28;20126;-73
2022/05/18 01:01:16;;;;;;;9.55;6.18;;;16.60;99.90;;;;;;4964918;28;20046;-73
2022/05/18 01:03:46;;;;;;;8.98;6.30;;;16.50;99.90;;;;;;4960644;28;20031;-73
2022/05/18 01:06:42;;;;;;;11.27;6.45;;;16.50;99.90;;;;;;4969612;28;20034;-73
2022/05/18 01:09:20;;;;;;;9.15;6.00;;;16.50;99.90;;;;;;4967981;28;20485;-73
2022/05/18 01:11:46;;;;;;;9.35;6.30;;;16.40;99.90;;;;;;4969764;28;20031;-73
2022/05/18 01:14:17;;;;;;;10.00;6.30;;;16.40;99.90;;;;;;4969018;28;20409;-73
2022/05/18 01:16:43;;;;;;;10.73;6.40;;;16.40;99.90;;;;;;4969430;28;20043;-73
2022/05/18 01:19:19;;;;;;;10.10;6.47;;;16.30;99.90;;;;;;4953198;28;20413;-73
2022/05/18 01:21:55;;;;;;;12.75;6.32;;;16.30;99.90;;;;;;4982807;28;20081;-74
2022/05/18 01:24:37;;;;;;;11.25;6.30;;;16.20;99.90;;;;;;4967125;28;20035;-73
2022/05/18 01:27:04;;;;;;;7.85;6.38;;;16.20;99.90;;;;;;4966883;28;20049;-73
2022/05/18 01:29:31;;;;;;;8.80;6.40;;;16.20;99.90;;;;;;4981615;28;20054;-73
2022/05/18 01:32:00;;;;;;;11.93;5.63;;;16.20;99.90;;;;;;4968620;28;20038;-74
2022/05/18 01:34:29;;;;;;;10.60;6.32;;;16.20;99.90;;;;;;4966013;28;20043;-74
2022/05/18 01:36:55;;;;;;;10.32;5.75;;;16.20;99.90;;;;;;4969135;28;20042;-73
2022/05/18 01:39:41;;;;;;;10.13;6.00;;;16.20;99.90;;;;;;4968965;28;20050;-73
2022/05/18 01:42:19;;;;;;;8.75;5.70;;;16.20;99.90;;;;;;4966720;28;20039;-73
2022/05/18 01:44:45;;;;;;;13.73;6.20;;;16.20;99.90;;;;;;4968416;28;20050;-72
2022/05/18 01:47:11;;;;;;;8.55;5.55;;;16.10;99.90;;;;;;4968739;28;20045;-72
2022/05/18 01:49:39;;;;;;;10.38;6.03;;;16.10;99.90;;;;;;4966212;28;20031;-72
2022/05/18 01:52:06;;;;;;;9.30;5.97;;;16.10;99.90;;;;;;4969304;28;20031;-72
2022/05/18 01:54:44;;;;;;;10.52;5.70;;;16.10;99.90;;;;;;4967642;28;20043;-72
2022/05/18 01:57:10;;;;;;;10.65;6.03;;;16.10;99.90;;;;;;4968470;28;20623;-73
2022/05/18 01:59:37;;;;;;;10.95;6.10;;;16.10;99.90;;;;;;4967968;28;20050;-72
2022/05/18 02:02:04;;;;;;;8.48;5.80;;;16.00;99.90;;;;;;4952147;28;20145;-72
2022/05/18 02:04:32;;;;;;;9.32;5.97;;;16.00;99.90;;;;;;4968279;28;20114;-72
2022/05/18 02:06:59;;;;;;;9.05;6.03;;;15.90;99.90;;;;;;4968217;28;20170;-72
2022/05/18 02:09:26;;;;;;;8.75;5.20;;;15.90;99.90;;;;;;4966550;28;20117;-72
2022/05/18 02:11:52;;;;;;;8.88;5.90;;;15.90;99.90;;;;;;4966772;28;20390;-73
2022/05/18 02:14:18;;;;;;;10.80;6.18;;;15.90;99.90;;;;;;4952747;28;20405;-73
2022/05/18 02:16:44;;;;;;;9.52;6.00;;;15.80;99.90;;;;;;4966482;28;20507;-72
2022/05/18 02:19:10;;;;;;;10.13;6.07;;;15.80;99.90;;;;;;4965241;28;20089;-72
2022/05/18 02:21:35;;;;;;;10.27;5.97;;;15.80;99.90;;;;;;4966285;28;20038;-72
2022/05/18 02:24:02;;;;;;;9.90;5.82;;;15.80;99.90;;;;;;4967369;28;20876;-72
2022/05/18 02:26:28;;;;;;;9.07;6.22;;;15.70;99.90;;;;;;4967847;28;20505;-73
2022/05/18 02:28:54;;;;;;;10.38;6.78;;;15.70;99.90;;;;;;4967507;28;20050;-72
2022/05/18 02:31:20;;;;;;;7.65;5.82;;;15.60;99.90;;;;;;4970128;28;20043;-72
2022/05/18 02:33:45;;;;;;;7.97;6.05;;;15.60;99.90;;;;;;4966492;28;20094;-72
2022/05/18 02:36:12;;;;;;;7.80;5.90;;;15.60;99.90;;;;;;4967828;28;20042;-72
2022/05/18 02:38:40;;;;;;;9.95;6.05;;;15.50;99.90;;;;;;4968201;28;20508;-72
2022/05/18 02:41:06;;;;;;;12.80;6.60;;;15.50;99.90;;;;;;4951306;28;20464;-72
2022/05/18 02:43:37;;;;;;;11.43;6.40;;;15.50;99.90;;;;;;4968626;28;20067;-72
2022/05/18 02:46:24;;;;;;;11.27;6.65;;;15.40;99.90;;;;;;4967208;28;20062;-72
2022/05/18 02:48:53;;;;;;;11.48;7.03;;;15.40;99.90;;;;;;4966396;28;20090;-72
2022/05/18 02:51:20;;;;;;;10.82;6.15;;;15.40;99.90;;;;;;4965954;28;20086;-72
2022/05/18 02:53:45;;;;;;;11.55;6.22;;;15.40;99.90;;;;;;4968246;28;20126;-72
2022/05/18 02:56:16;;;;;;;9.20;6.50;;;15.30;99.90;;;;;;4967431;28;20121;-73
2022/05/18 02:58:46;;;;;;;11.98;6.18;;;15.40;99.90;;;;;;4964342;28;20088;-72
2022/05/18 03:01:18;;;;;;;12.40;6.85;;;15.30;99.90;;;;;;4966720;28;20385;-72
2022/05/18 03:03:46;;;;;;;9.33;6.50;;;15.30;99.90;;;;;;4962278;28;20050;-73
2022/05/18 03:06:15;;;;;;;7.65;6.38;;;15.30;99.90;;;;;;4983154;28;20057;-72
2022/05/18 03:08:42;;;;;;;10.70;6.90;;;15.20;99.90;;;;;;4967471;28;20054;-72
2022/05/18 03:11:09;;;;;;;12.23;7.28;;;15.20;99.90;;;;;;4966076;28;20041;-72
2022/05/18 03:13:35;;;;;;;13.77;7.43;;;15.20;99.90;;;;;;4967011;28;20043;-72
2022/05/18 03:16:01;;;;;;;12.27;7.15;;;15.10;99.90;;;;;;4981344;28;20039;-72
2022/05/18 03:18:27;;;;;;;11.25;7.47;;;15.10;99.90;;;;;;4965027;28;21290;-72
2022/05/18 03:23:37;;;;;;;12.30;7.32;;;15.00;99.90;;;;;;4968865;28;20078;-72
2022/05/18 03:26:16;;;;;;;13.13;8.02;;;15.00;99.90;;;;;;4966564;28;20066;-72
2022/05/18 03:28:44;;;;;;;11.57;6.88;;;15.00;99.90;;;;;;4966669;28;20047;-72
2022/05/18 03:31:11;;;;;;;12.93;7.32;;;15.00;99.90;;;;;;4966271;28;20090;-72
2022/05/18 03:33:37;;;;;;;9.30;7.53;;;14.90;99.90;;;;;;4965233;28;20038;-72
2022/05/18 03:36:04;;;;;;;10.02;6.75;;;14.90;99.90;;;;;;4964862;28;20142;-72
2022/05/18 03:38:30;;;;;;;9.85;7.32;;;14.90;99.90;;;;;;4966526;28;20430;-72
2022/05/18 03:40:56;;;;;;;11.27;7.50;;;14.90;99.90;;;;;;4963021;28;20042;-72
2022/05/18 03:43:22;;;;;;;9.10;7.63;;;14.90;99.90;;;;;;4965903;28;20049;-72
2022/05/18 03:45:48;;;;;;;15.95;7.82;;;14.90;99.90;;;;;;4962058;28;20414;-72
2022/05/18 03:48:17;;;;;;;9.55;8.15;;;14.80;99.90;;;;;;4978649;28;20038;-72
2022/05/18 03:50:46;;;;;;;10.80;7.50;;;14.80;99.90;;;;;;4963828;28;20041;-72
2022/05/18 03:53:13;;;;;;;12.95;7.47;;;14.80;99.90;;;;;;4964864;28;20074;-72
2022/05/18 03:55:41;;;;;;;12.07;7.80;;;14.80;99.90;;;;;;4965657;28;20044;-72
2022/05/18 03:58:07;;;;;;;10.35;7.88;;;14.70;99.90;;;;;;4966894;28;20035;-72
2022/05/18 04:00:33;;;;;;;9.38;8.00;;;14.70;99.90;;;;;;4964172;28;20393;-72
2022/05/18 04:03:00;;;;;;;10.10;8.10;;;14.70;99.90;;;;;;4963839;28;20501;-72
2022/05/18 04:05:26;;;;;;;11.25;8.32;;;14.70;99.90;;;;;;4949726;28;20055;-72
2022/05/18 04:07:52;;;;;;;12.32;7.85;;;14.70;99.90;;;;;;4966019;28;20043;-72
2022/05/18 04:10:19;;;;;;;11.15;8.52;;;14.70;99.90;;;;;;4964688;28;20062;-72
2022/05/18 04:12:45;;;;;;;9.32;7.35;;;14.70;99.90;;;;;;4966112;28;20089;-72
2022/05/18 04:15:16;;;;;;;11.50;8.23;;;14.70;99.90;;;;;;4966206;28;20042;-72
2022/05/18 04:17:44;;;;;;;10.13;8.02;;;14.70;99.90;;;;;;4964273;28;20051;-73
2022/05/18 04:20:14;;;;;;;9.05;8.05;;;14.70;99.90;;;;;;4964888;28;20050;-72
2022/05/18 04:22:40;;;;;;;11.75;8.15;;;14.70;99.90;;;;;;4966119;28;20045;-72
2022/05/18 04:25:07;;;;;;;9.13;8.13;;;14.60;99.90;;;;;;4965214;28;20046;-72
2022/05/18 04:27:33;;;;;;;9.05;7.85;;;14.60;99.90;;;;;;4951311;28;20050;-72
2022/05/18 04:29:58;;;;;;;12.38;8.50;;;14.60;99.90;;;;;;4966030;28;20042;-72
2022/05/18 04:32:24;;;;;;;13.15;8.93;;;14.60;99.90;;;;;;4965959;28;20061;-72
2022/05/18 04:34:50;;;;;;;12.20;8.27;;;14.60;99.90;;;;;;4964204;28;20186;-72
2022/05/18 04:37:17;;;;;;;13.25;8.98;;;14.70;99.90;;;;;;4962633;28;20047;-72
2022/05/18 04:39:42;;;;;;;11.70;8.90;;;14.60;99.90;;;;;;4965494;28;20130;-72
2022/05/18 04:42:09;;;;;;;12.07;9.48;;;14.70;99.90;;;;;;4984498;28;20114;-72
2022/05/18 04:44:35;;;;;;;11.07;9.25;;;14.70;99.90;;;;;;4970281;28;20050;-73
2022/05/18 04:47:00;;;;;;;10.48;8.40;;;14.70;99.90;;;;;;4953246;28;20042;-72
2022/05/18 04:49:27;;;;;;;11.35;8.90;;;14.70;99.90;;;;;;4969890;28;20043;-72
2022/05/18 04:51:52;;;;;;;10.82;8.45;;;14.70;99.90;;;;;;4984752;28;22327;-72
2022/05/18 04:54:18;;;;;;;13.80;8.98;;;14.80;99.90;;;;;;4968502;28;20035;-72
2022/05/18 04:56:44;;;;;;;9.95;8.30;;;14.70;99.90;;;;;;4969206;28;20050;-73
2022/05/18 04:59:09;;;;;;;12.45;9.18;;;14.80;99.90;;;;;;4970051;28;20076;-72
2022/05/18 05:01:35;;;;;;;12.85;9.25;;;14.80;99.90;;;;;;4968493;28;20043;-73
2022/05/18 05:04:02;;;;;;;11.07;8.85;;;14.90;99.90;;;;;;4968041;28;20075;-72
2022/05/18 05:06:27;;;;;;;9.73;8.63;;;14.90;99.90;;;;;;4969297;28;20609;-72
2022/05/18 05:08:53;;;;;;;11.68;8.70;;;14.90;99.90;;;;;;4966844;28;20122;-72
2022/05/18 05:11:19;;;;;;;12.98;8.90;;;14.90;99.90;;;;;;4968551;28;20047;-72
2022/05/18 05:13:45;;;;;;;12.32;9.10;;;15.00;99.90;;;;;;4968643;28;20149;-72
2022/05/18 05:16:11;;;;;;;11.30;9.35;;;15.10;99.90;;;;;;4968708;28;20038;-72
2022/05/18 05:18:40;;;;;;;13.95;9.38;;;15.10;99.90;;;;;;4970674;28;20041;-72
2022/05/18 05:21:05;;;;;;;13.25;9.77;;;15.10;99.90;;;;;;4970049;28;20043;-72
2022/05/18 05:23:32;;;;;;;14.23;9.88;;;15.20;99.90;;;;;;4967568;28;20053;-72
2022/05/18 05:25:59;;;;;;;17.17;10.18;;;15.30;99.90;;;;;;4967573;28;20042;-72
2022/05/18 05:28:25;;;;;;;13.73;10.27;;;15.30;99.90;;;;;;4953940;28;20141;-72
2022/05/18 05:30:51;;;;;;;14.27;11.38;;;15.40;99.90;;;;;;4967252;28;20050;-72
2022/05/18 05:33:17;;;;;;;15.68;11.93;;;15.40;99.90;;;;;;4968906;28;20117;-72
2022/05/18 05:35:43;;;;;;;17.52;12.02;;;15.50;99.90;;;;;;4969075;28;20046;-72
2022/05/18 05:38:10;;;;;;;13.32;11.93;;;15.60;99.90;;;;;;4967707;28;20043;-72
2022/05/18 05:40:36;;;;;;;16.58;12.13;;;15.70;99.90;;;;;;4966885;28;20045;-72
2022/05/18 05:43:10;;;;;;;15.52;12.15;;;15.90;99.90;;;;;;4969989;28;20694;-72
2022/05/18 05:45:36;;;;;;;15.35;12.02;;;16.00;99.90;;;;;;4966039;28;20051;-73
2022/05/18 05:48:04;;;;;;;17.15;11.68;;;16.10;99.90;;;;;;4964750;28;20047;-73
2022/05/18 05:50:33;;;;;;;13.38;11.65;;;16.20;99.90;;;;;;4967725;28;20035;-73
2022/05/18 05:52:59;;;;;;;16.30;12.52;;;16.30;99.90;;;;;;4963629;28;20041;-72
2022/05/18 05:55:25;;;;;;;14.95;12.75;;;16.50;99.90;;;;;;4968046;28;20038;-73
2022/05/18 05:57:55;;;;;;;17.00;12.68;;;16.60;99.90;;;;;;4963482;28;20047;-73
2022/05/18 06:00:24;;;;;;;15.98;12.77;;;16.60;99.90;;;;;;4961566;28;20035;-72
2022/05/18 06:02:50;;;;;;;14.85;12.65;;;16.70;99.90;;;;;;4965573;28;20038;-73
2022/05/18 06:05:20;;;;;;;16.63;12.38;;;16.80;99.90;;;;;;4966500;28;20035;-72
2022/05/18 06:07:46;;;;;;;18.15;12.50;;;17.00;99.90;;;;;;4948783;28;20043;-72
2022/05/18 06:10:12;;;;;;;17.25;12.35;;;17.00;99.90;;;;;;4966163;28;20041;-72
2022/05/18 06:12:38;;;;;;;13.55;11.27;;;17.10;99.90;;;;;;4963737;28;20048;-72
2022/05/18 06:15:06;;;;;;;16.55;11.27;;;17.30;99.90;;;;;;4963057;28;20097;-72
2022/05/18 06:17:32;;;;;;;16.55;11.77;;;17.40;99.90;;;;;;4962823;28;20043;-72
2022/05/18 06:19:58;;;;;;;18.08;11.98;;;17.50;99.90;;;;;;4993609;23;20148;-74
2022/05/18 06:22:25;;;;;;;14.90;11.13;;;17.60;99.90;;;;;;4974362;28;20050;-74
2022/05/18 06:24:51;;;;;;;13.13;11.63;;;17.70;99.90;;;;;;4958460;28;20113;-74
2022/05/18 06:27:18;;;;;;;15.63;10.98;;;17.80;99.90;;;;;;4968222;28;20510;-74
2022/05/18 06:29:44;;;;;;;14.30;10.45;;;17.90;99.90;;;;;;4967576;28;20129;-74
2022/05/18 06:32:09;;;;;;;13.68;10.73;;;18.00;99.90;;;;;;4968531;28;20630;-74
2022/05/18 06:34:35;;;;;;;14.18;10.68;;;18.10;99.90;;;;;;4981947;28;20043;-74
2022/05/18 06:37:03;;;;;;;16.15;10.13;;;18.20;99.90;;;;;;4968090;28;20125;-74
2022/05/18 06:39:29;;;;;;;11.48;10.20;;;18.40;99.90;;;;;;4975198;28;20745;-74
2022/05/18 06:41:57;;;;;;;14.25;10.13;;;18.50;99.90;;;;;;4966660;28;20046;-74
2022/05/18 06:44:24;;;;;;;12.18;9.35;;;18.60;99.90;;;;;;4961600;28;20086;-74
2022/05/18 06:46:50;;;;;;;14.20;10.40;;;18.90;99.90;;;;;;4964296;28;20452;-74
2022/05/18 06:49:17;;;;;;;13.07;10.75;;;19.00;99.90;;;;;;4965039;28;20034;-74
2022/05/18 06:51:44;;;;;;;16.20;10.00;;;19.10;99.90;;;;;;4966079;28;20463;-74
2022/05/18 06:54:10;;;;;;;13.73;9.80;;;19.30;99.90;;;;;;4963673;28;20183;-73
2022/05/18 06:56:40;;;;;;;11.95;9.23;;;19.40;99.90;;;;;;4949189;28;20042;-74
2022/05/18 06:59:06;;;;;;;14.77;9.52;;;19.60;99.90;;;;;;4942104;28;20043;-74
2022/05/18 07:01:33;;;;;;;14.02;9.38;;;19.70;99.90;;;;;;4982547;28;20049;-74
2022/05/18 07:03:59;;;;;;;12.73;10.07;;;19.80;99.90;;;;;;4968530;28;20133;-74
2022/05/18 07:06:27;;;;;;;11.65;9.30;;;19.90;99.90;;;;;;4965544;28;20536;-74
2022/05/18 07:08:54;;;;;;;12.73;9.00;;;20.00;99.90;;;;;;4978474;28;22798;-74
2022/05/18 07:11:20;;;;;;;10.73;8.70;;;20.20;99.90;;;;;;4965361;28;20501;-73
2022/05/18 07:13:51;;;;;;;14.63;8.93;;;20.30;99.90;;;;;;4965721;28;20540;-73
2022/05/18 07:16:18;;;;;;;11.35;8.60;;;20.40;99.90;;;;;;4964308;28;20489;-73
2022/05/18 07:18:45;;;;;;;10.82;8.65;;;20.50;99.90;;;;;;4960875;28;20417;-74
2022/05/18 07:21:11;;;;;;;11.52;8.38;;;20.70;99.90;;;;;;4965893;28;20497;-73
2022/05/18 07:23:37;;;;;;;10.40;8.20;;;20.90;99.90;;;;;;4967282;28;20429;-73
2022/05/18 07:26:04;;;;;;;14.57;8.45;;;21.00;99.90;;;;;;4971873;28;20413;-74
2022/05/18 07:28:30;;;;;;;10.98;8.18;;;21.20;99.90;;;;;;4967828;28;20049;-73
2022/05/18 07:30:56;;;;;;;12.18;8.45;;;21.30;99.90;;;;;;4975045;28;20437;-74
2022/05/18 07:33:24;;;;;;;11.15;7.88;;;21.40;99.90;;;;;;4969691;28;20038;-74
2022/05/18 07:35:51;;;;;;;12.07;8.15;;;21.60;99.90;;;;;;4971483;28;20455;-74
2022/05/18 07:38:19;;;;;;;14.48;8.38;;;21.80;99.90;;;;;;4976021;28;20097;-73
2022/05/18 07:40:46;;;;;;;12.50;8.43;;;22.00;99.90;;;;;;4972275;28;20081;-73
2022/05/18 07:43:11;;;;;;;11.63;7.70;;;22.10;99.90;;;;;;4973440;28;20046;-73
2022/05/18 07:45:37;;;;;;;8.77;7.18;;;22.20;99.90;;;;;;4968123;28;20050;-73
2022/05/18 07:48:03;;;;;;;11.90;7.10;;;22.30;99.90;;;;;;4969291;28;20105;-73
2022/05/18 07:50:29;;;;;;;12.05;7.20;;;22.50;99.90;;;;;;4961582;28;20039;-73
2022/05/18 07:52:58;;;;;;;11.82;7.70;;;22.70;99.90;;;;;;4967339;28;20685;-73
2022/05/18 07:55:25;;;;;;;8.60;6.82;;;22.80;99.90;;;;;;4965666;28;20039;-74
2022/05/18 07:57:51;;;;;;;12.82;7.57;;;23.00;99.90;;;;;;4969776;28;20441;-74
2022/05/18 08:00:18;;;;;;;10.77;6.93;;;23.10;99.90;;;;;;4966931;28;20109;-74
2022/05/18 08:02:44;;;;;;;9.23;7.43;;;23.20;99.90;;;;;;4973481;28;20047;-74
2022/05/18 08:05:10;;;;;;;10.68;6.80;;;23.40;99.90;;;;;;4979818;28;20043;-74
2022/05/18 08:07:35;;;;;;;8.75;6.63;;;23.50;99.90;;;;;;4969289;28;20525;-74
2022/05/18 08:15:32;;;;;;;11.25;6.38;;;23.90;99.90;;;;;;4964232;28;20137;-74
2022/05/18 08:17:58;;;;;;;11.25;6.28;;;24.00;99.90;;;;;;4949660;28;20055;-75
2022/05/18 08:20:25;;;;;;;10.05;6.18;;;24.10;99.90;;;;;;4967373;28;20056;-75
2022/05/18 08:22:51;;;;;;;8.40;6.10;;;24.30;99.90;;;;;;4962959;28;20047;-75
2022/05/18 08:25:17;;;;;;;10.65;5.70;;;24.40;99.90;;;;;;4962338;28;20121;-75
2022/05/18 08:27:45;;;;;;;8.07;5.95;;;24.50;99.90;;;;;;4971640;28;20549;-75
2022/05/18 08:30:14;;;;;;;10.57;6.25;;;24.60;99.90;;;;;;4964750;28;20122;-75
2022/05/18 08:32:41;;;;;;;9.65;6.10;;;24.80;99.90;;;;;;4974801;28;20057;-75
2022/05/18 08:35:08;;;;;;;11.27;6.50;;;24.90;99.90;;;;;;4949366;28;20105;-74
2022/05/18 08:37:42;;;;;;;12.43;6.75;;;25.00;99.90;;;;;;4964007;28;20509;-75
2022/05/18 08:40:20;;;;;;;12.35;6.50;;;25.10;99.90;;;;;;4959462;28;20065;-73
2022/05/18 08:42:46;;;;;;;7.13;6.38;;;25.00;99.90;;;;;;4968394;28;20043;-74
2022/05/18 08:45:13;;;;;;;9.93;6.40;;;25.10;99.90;;;;;;4961682;28;20043;-75
2022/05/18 08:48:28;;;;;;;9.10;6.47;;;25.30;99.90;;;;;;4976632;28;20094;-74
2022/05/18 08:51:11;;;;;;;8.82;5.93;;;25.30;99.90;;;;;;4959847;28;20069;-75
2022/05/18 08:54:05;;;;;;;12.98;5.72;;;25.30;99.90;;;;;;4963951;28;20067;-74
2022/05/18 08:56:34;;;;;;;8.98;5.60;;;25.30;99.70;;;;;;4969350;28;20046;-74
2022/05/18 08:59:04;;;;;;;11.13;5.82;;;25.40;99.90;;;;;;4967584;28;20057;-74
2022/05/18 09:01:41;;;;;;;10.57;5.88;;;25.50;99.30;;;;;;4973626;28;20081;-74
2022/05/18 09:04:24;;;;;;;9.60;6.00;;;25.50;97.20;;;;;;4965351;28;20082;-73
2022/05/18 09:06:52;;;;;;;9.25;6.25;;;25.40;97.50;;;;;;4970286;28;20043;-73
2022/05/18 09:12:30;;;;;;;7.13;6.03;;;25.90;99.90;;;;;;4986624;28;20042;-75
2022/05/18 09:14:56;;;;;;;8.20;6.15;;;26.00;96.20;;;;;;4971348;28;20045;-75
2022/05/18 09:17:40;;;;;;;8.65;6.05;;;26.30;98.10;;;;;;4965038;28;20148;-75
2022/05/18 09:20:19;;;;;;;9.10;5.32;;;26.40;98.50;;;;;;4980832;28;20050;-75
2022/05/18 09:23:19;;;;;;;7.68;5.20;;;26.60;94.70;;;;;;4970731;28;20050;-75
2022/05/18 09:25:51;;;;;;;11.73;5.20;;;26.70;91.10;;;;;;4966467;28;20047;-75
2022/05/18 09:28:23;;;;;;;6.82;4.22;;;26.70;91.80;;;;;;4978474;28;20126;-75
2022/05/18 09:30:57;;;;;;;7.50;4.25;;;26.70;87.70;;;;;;4963049;28;20035;-75
2022/05/18 09:33:48;;;;;;;9.25;4.93;;;26.80;89.10;;;;;;4972493;28;20039;-75
2022/05/18 09:36:31;;;;;;;6.93;5.10;;;26.90;90.00;;;;;;4976800;28;20042;-75
2022/05/18 09:39:11;;;;;;;9.63;5.38;;;27.00;87.80;;;;;;4973915;28;20122;-75
2022/05/18 09:41:41;;;;;;;8.25;5.05;;;27.10;87.10;;;;;;4967821;28;20047;-75
2022/05/18 09:44:30;;;;;;;8.63;4.90;;;27.30;87.80;;;;;;4970195;28;20051;-75
2022/05/18 09:46:57;;;;;;;7.72;5.68;;;27.50;86.80;;;;;;4968063;28;20122;-75
2022/05/18 09:49:45;;;;;;;7.63;5.47;;;27.70;86.40;;;;;;4987070;28;20034;-75
2022/05/18 09:52:12;;;;;;;10.52;5.05;;;27.80;80.20;;;;;;4969172;28;20067;-75
2022/05/18 09:54:39;;;;;;;11.57;5.95;;;27.80;84.80;;;;;;4991273;28;20054;-75
2022/05/18 09:57:17;;;;;;;7.53;5.85;;;27.90;85.20;;;;;;4971239;28;20070;-75
2022/05/18 10:00:05;;;;;;;9.52;6.13;;;28.00;80.50;;;;;;4981334;28;20047;-75
2022/05/18 10:08:11;;;;;;;10.15;6.47;;;28.00;81.30;;;;;;4965914;28;20046;-75
2022/05/18 10:10:38;;;;;;;9.82;7.40;;;28.30;80.80;;;;;;4979961;28;20046;-75
2022/05/18 10:13:20;;;;;;;10.70;7.72;;;28.10;78.70;;;;;;4974211;28;20042;-75
2022/05/18 10:15:58;;;;;;;12.20;8.10;;;28.30;80.30;;;;;;4970517;28;20043;-75
2022/05/18 10:18:33;;;;;;;15.27;7.20;;;28.30;84.20;;;;;;4963067;28;20042;-75
2022/05/18 10:21:06;;;;;;;11.93;8.27;;;28.40;84.90;;;;;;4964410;28;20046;-75
2022/05/18 10:23:39;;;;;;;11.20;7.70;;;28.50;84.90;;;;;;4969586;28;20043;-76
2022/05/18 10:26:11;;;;;;;12.68;7.65;;;28.50;81.90;;;;;;4971613;28;20141;-76
2022/05/18 10:28:42;;;;;;;15.40;8.70;;;28.70;84.00;;;;;;4966879;28;20390;-75
2022/05/18 10:31:24;;;;;;;12.48;7.93;;;28.60;76.10;;;;;;4963443;28;20052;-75
2022/05/18 10:33:49;;;;;;;14.25;8.90;;;28.30;81.00;;;;;;4970330;28;20101;-76
2022/05/18 10:36:28;;;;;;;13.93;8.88;;;28.20;75.40;;;;;;4985954;28;20031;-75
2022/05/18 10:38:57;;;;;;;12.38;8.48;;;28.10;77.30;;;;;;4985408;28;20463;-75
2022/05/18 10:41:29;;;;;;;13.00;8.55;;;28.20;79.20;;;;;;4964002;28;20406;-75
2022/05/18 10:43:55;;;;;;;13.55;8.55;;;28.30;75.70;;;;;;4968397;28;20449;-75
2022/05/18 10:46:38;;;;;;;10.77;7.80;;;28.60;75.70;;;;;;4972140;28;20043;-75
2022/05/18 10:49:27;;;;;;;13.65;7.70;;;28.90;72.50;;;;;;4970792;28;20130;-75
2022/05/18 10:51:53;;;;;;;10.45;7.18;;;29.20;71.20;;;;;;4982805;28;20070;-74
2022/05/18 10:54:25;;;;;;;12.80;8.45;;;29.30;68.70;;;;;;4969567;28;20182;-74
2022/05/18 10:56:52;;;;;;;9.77;7.82;;;29.20;66.10;;;;;;4921522;28;20101;-74
2022/05/18 10:59:55;;;;;;;13.32;8.35;;;29.40;66.30;;;;;;4964710;28;21571;-74
2022/05/18 11:02:40;;;;;;;11.30;8.10;;;29.40;66.90;;;;;;4970939;28;20074;-74
2022/05/18 11:05:16;;;;;;;12.10;8.57;;;29.50;66.40;;;;;;4970782;28;20557;-74
2022/05/18 11:07:43;;;;;;;15.77;9.00;;;29.50;63.90;;;;;;4967148;28;20392;-74
2022/05/18 11:10:10;;;;;;;11.02;7.97;;;29.50;63.90;;;;;;4967306;28;20404;-74
2022/05/18 11:12:50;;;;;;;15.50;8.70;;;29.50;63.50;;;;;;4972831;28;20070;-74
2022/05/18 11:15:43;;;;;;;9.13;7.57;;;29.60;63.30;;;;;;4965867;28;20494;-73
2022/05/18 11:18:37;;;;;;;18.55;10.68;;;29.50;63.10;;;;;;4984474;28;20679;-75
2022/05/18 11:21:07;;;;;;;13.65;10.55;;;29.60;65.30;;;;;;4955343;28;20669;-74
2022/05/18 11:24:03;;;;;;;14.75;10.10;;;29.90;62.80;;;;;;4964124;28;20564;-74
2022/05/18 11:26:57;;;;;;;15.27;10.05;;;29.60;63.20;;;;;;4966298;28;20561;-74
2022/05/18 11:29:48;;;;;;;13.05;9.10;;;29.40;62.40;;;;;;4955979;28;20142;-74
2022/05/18 11:32:44;;;;;;;12.43;8.45;;;29.70;64.80;;;;;;4973312;28;20592;-74
2022/05/18 11:35:36;;;;;;;12.13;9.13;;;29.90;62.00;;;;;;4964409;28;20051;-74
2022/05/18 11:38:56;;;;;;;16.08;8.95;;;30.20;63.70;;;;;;4969361;28;20039;-74
2022/05/18 11:41:56;;;;;;;15.70;8.55;;;30.50;64.10;;;;;;4950629;28;20533;-74
2022/05/18 11:44:50;;;;;;;11.45;8.25;;;30.90;60.00;;;;;;4941656;28;20074;-74
2022/05/18 11:47:22;;;;;;;18.80;9.27;;;31.10;61.30;;;;;;4962975;28;20046;-74
2022/05/18 11:50:06;;;;;;;13.40;9.45;;;31.00;60.90;;;;;;4968814;28;20362;-74
2022/05/18 11:52:40;;;;;;;15.65;11.38;;;31.10;60.50;;;;;;4966611;28;20043;-74
2022/05/18 11:55:39;;;;;;;14.38;10.13;;;30.50;58.00;;;;;;4970076;28;20093;-74
2022/05/18 11:58:26;;;;;;;20.58;10.68;;;30.70;61.80;;;;;;4964117;28;20069;-74
2022/05/18 12:01:13;;;;;;;14.82;11.23;;;30.20;62.50;;;;;;4969236;28;20038;-74
2022/05/18 12:03:51;;;;;;;12.75;10.35;;;29.90;62.40;;;;;;4973595;28;20082;-74
2022/05/18 12:06:55;;;;;;;13.57;10.70;;;29.60;64.00;;;;;;4966676;28;20054;-74
2022/05/18 12:09:50;;;;;;;16.98;10.52;;;29.40;62.50;;;;;;4967355;28;20051;-74
2022/05/18 12:12:35;;;;;;;15.95;11.10;;;29.20;67.60;;;;;;4935906;28;20062;-74
2022/05/18 12:15:22;;;;;;;14.75;10.10;;;29.10;66.30;;;;;;4981563;28;20049;-73
2022/05/18 12:18:21;;;;;;;13.15;10.65;;;29.10;72.70;;;;;;4959302;28;20058;-73
2022/05/18 12:20:57;;;;;;;15.77;10.23;;;29.20;71.30;;;;;;4968743;28;20102;-73
2022/05/18 12:23:29;;;;;;;14.95;10.50;;;29.10;70.70;;;;;;4982803;28;20035;-73
2022/05/18 12:25:56;;;;;;;11.65;10.20;;;29.00;70.50;;;;;;4964212;28;20122;-73
2022/05/18 12:28:24;;;;;;;15.10;11.52;;;29.00;74.80;;;;;;4965885;28;20050;-73
2022/05/18 12:30:50;;;;;;;14.68;11.77;;;29.00;77.50;;;;;;4969424;28;20039;-73
2022/05/18 12:33:19;;;;;;;17.23;11.25;;;28.90;79.10;;;;;;4967044;28;20050;-73
2022/05/18 12:36:03;;;;;;;21.38;12.13;;;28.80;78.50;;;;;;4964067;28;20482;-73
2022/05/18 12:38:39;;;;;;;14.13;11.38;;;28.90;77.90;;;;;;4964489;28;20057;-73
2022/05/18 12:41:10;;;;;;;15.52;12.27;;;29.10;85.90;;;;;;4969624;28;20042;-74
2022/05/18 12:43:56;;;;;;;17.83;13.43;;;29.10;78.10;;;;;;4970133;28;20078;-73
2022/05/18 12:46:28;;;;;;;17.02;12.57;;;29.10;76.50;;;;;;4962768;28;20054;-72
2022/05/18 12:49:04;;;;;;;13.70;11.90;;;29.20;75.90;;;;;;4960561;28;20137;-73
2022/05/18 12:51:30;;;;;;;12.25;10.77;;;29.10;75.80;;;;;;4961985;28;20178;-74
2022/05/18 12:54:12;;;;;;;14.55;10.82;;;29.10;78.80;;;;;;4963282;28;20129;-73
2022/05/18 12:56:38;;;;;;;15.43;10.90;;;29.50;80.00;;;;;;4964403;28;20138;-74
2022/05/18 12:59:11;;;;;;;13.07;10.55;;;29.50;78.00;;;;;;4964663;28;20186;-73
2022/05/18 13:01:42;;;;;;;19.60;11.82;;;29.50;78.70;;;;;;4965507;28;20039;-73
2022/05/18 13:04:10;;;;;;;20.63;12.32;;;29.60;76.50;;;;;;4954154;28;20118;-73
2022/05/18 13:06:36;;;;;;;15.80;11.05;;;29.40;75.20;;;;;;4976232;28;20065;-73
2022/05/18 13:09:27;;;;;;;15.65;10.30;;;29.20;76.10;;;;;;4966336;28;20081;-73
2022/05/18 13:12:21;;;;;;;16.27;11.30;;;29.40;80.50;;;;;;4970586;28;20062;-73
2022/05/18 13:15:08;;;;;;;17.17;13.52;;;29.40;79.40;;;;;;4970571;28;20495;-73
2022/05/18 13:17:45;;;;;;;17.70;12.35;;;29.40;78.80;;;;;;4945378;28;20051;-73